Time;durP1;ratioP1;P1;durP2;ratioP2;P2;SDS_P1;SDS_P2;PMS_P1;PMS_P2;Temp;Humidity;BMP_temperature;BMP_pressure;BME280_temperature;BME280_humidity;BME280_pressure;Samples;Min_cycle;Max_cycle;Signal;HPM_P1;HPM_P2
2022/03/29 00:00:39;;;;;;;11.98;8.50;;;20.50;41.20;;;;;;5004743;28;20018;-83
2022/03/29 00:03:08;;;;;;;12.95;8.50;;;20.50;41.10;;;;;;5006569;28;20022;-77
2022/03/29 00:05:35;;;;;;;13.93;8.95;;;20.50;41.20;;;;;;5022373;28;20018;-75
2022/03/29 00:08:02;;;;;;;12.15;8.77;;;20.50;41.20;;;;;;5040873;28;20034;-76
2022/03/29 00:10:28;;;;;;;13.43;8.75;;;20.50;41.20;;;;;;5021738;28;20080;-75
2022/03/29 00:12:53;;;;;;;12.18;8.80;;;20.50;41.30;;;;;;5019104;28;20034;-85
2022/03/29 00:15:23;;;;;;;11.02;8.18;;;20.50;41.30;;;;;;5026665;28;20032;-75
2022/03/29 00:17:49;;;;;;;12.60;8.45;;;20.40;41.30;;;;;;5040320;28;20022;-75
2022/03/29 00:20:18;;;;;;;11.10;8.32;;;20.50;41.30;;;;;;5040324;28;20010;-79
2022/03/29 00:22:47;;;;;;;14.02;9.13;;;20.40;41.30;;;;;;5040797;28;20020;-76
2022/03/29 00:25:13;;;;;;;13.18;8.77;;;20.40;41.30;;;;;;5024056;28;20026;-75
2022/03/29 00:27:41;;;;;;;14.02;8.55;;;20.40;41.30;;;;;;5024047;28;20735;-76
2022/03/29 00:30:09;;;;;;;16.35;8.48;;;20.50;41.40;;;;;;5040849;28;20070;-80
2022/03/29 00:32:35;;;;;;;14.43;8.90;;;20.50;41.40;;;;;;5040820;28;20014;-77
2022/03/29 00:35:01;;;;;;;12.82;8.35;;;20.40;41.40;;;;;;5039872;28;20024;-76
2022/03/29 00:37:27;;;;;;;12.90;8.50;;;20.50;41.40;;;;;;5040615;28;20006;-75
2022/03/29 00:39:53;;;;;;;12.95;9.00;;;20.40;41.40;;;;;;5040590;28;20045;-78
2022/03/29 00:42:22;;;;;;;12.77;8.63;;;20.40;41.40;;;;;;5040748;28;20018;-77
2022/03/29 00:44:48;;;;;;;11.65;8.32;;;20.40;41.50;;;;;;5040455;28;20025;-74
2022/03/29 00:47:14;;;;;;;12.50;9.43;;;20.40;41.50;;;;;;5023931;28;20082;-75
2022/03/29 00:49:40;;;;;;;14.55;9.23;;;20.40;41.50;;;;;;5040315;28;20010;-74
2022/03/29 00:52:06;;;;;;;14.63;9.48;;;20.40;41.60;;;;;;5040273;28;20014;-76
2022/03/29 00:54:34;;;;;;;12.60;8.60;;;20.40;42.20;;;;;;5040024;28;20010;-79
2022/03/29 00:57:00;;;;;;;12.77;9.02;;;20.40;41.60;;;;;;5040436;28;20021;-76
2022/03/29 00:59:27;;;;;;;12.77;9.20;;;20.40;41.60;;;;;;5040362;28;20010;-75
2022/03/29 01:01:53;;;;;;;14.02;9.52;;;20.40;41.60;;;;;;5040281;28;20010;-78
2022/03/29 01:04:21;;;;;;;13.57;9.18;;;20.40;41.70;;;;;;5040075;28;20068;-79
2022/03/29 01:06:46;;;;;;;12.15;8.95;;;20.40;41.70;;;;;;5040277;28;20006;-77
2022/03/29 01:09:12;;;;;;;13.65;9.10;;;20.40;41.70;;;;;;5040122;28;20090;-76
2022/03/29 01:11:39;;;;;;;12.07;8.70;;;20.30;41.70;;;;;;5040131;28;20010;-77
2022/03/29 01:14:05;;;;;;;15.00;8.98;;;20.30;41.70;;;;;;5039411;28;20013;-79
2022/03/29 01:19:20;;;;;;;11.48;8.60;;;20.30;41.80;;;;;;5039734;28;20036;-75
2022/03/29 01:22:03;;;;;;;16.15;9.07;;;20.30;41.70;;;;;;5039924;28;20033;-74
2022/03/29 01:24:28;;;;;;;11.25;8.38;;;20.30;41.80;;;;;;5023399;28;20076;-75
2022/03/29 01:26:59;;;;;;;12.48;8.43;;;20.30;41.90;;;;;;5039810;28;20038;-75
2022/03/29 01:29:24;;;;;;;;;;;20.30;41.90;;;;;;5039187;28;20021;-74
2022/03/29 01:31:50;;;;;;;14.95;8.57;;;20.30;41.90;;;;;;5005217;28;20351;-84
2022/03/29 01:34:19;;;;;;;13.13;8.90;;;20.30;41.90;;;;;;5020770;28;20100;-75
2022/03/29 01:36:45;;;;;;;13.35;9.27;;;20.30;42.00;;;;;;5019833;28;20493;-74
2022/03/29 01:39:11;;;;;;;13.15;8.82;;;20.20;42.00;;;;;;5019628;28;20401;-84
2022/03/29 01:41:38;;;;;;;13.50;9.15;;;20.20;42.00;;;;;;5019098;28;20022;-74
2022/03/29 01:44:06;;;;;;;12.85;8.95;;;20.30;42.00;;;;;;5018146;28;20021;-74
2022/03/29 01:46:32;;;;;;;13.10;9.27;;;20.20;42.00;;;;;;5017626;28;20026;-76
2022/03/29 01:48:59;;;;;;;13.77;9.48;;;20.20;42.00;;;;;;5019564;28;20444;-77
2022/03/29 01:51:25;;;;;;;11.70;8.85;;;20.20;42.00;;;;;;5000906;28;20021;-75
2022/03/29 01:53:54;;;;;;;12.50;8.80;;;20.20;42.00;;;;;;5017144;28;20018;-75
2022/03/29 01:56:22;;;;;;;13.43;9.10;;;20.30;42.00;;;;;;5017705;28;20033;-74
2022/03/29 01:58:48;;;;;;;12.13;8.40;;;20.30;42.10;;;;;;5000027;28;20014;-75
2022/03/29 02:01:15;;;;;;;13.60;8.85;;;20.20;42.00;;;;;;5016675;28;20393;-74
2022/03/29 02:03:44;;;;;;;13.02;9.27;;;20.30;42.10;;;;;;5032563;28;20396;-74
2022/03/29 02:06:11;;;;;;;12.82;9.10;;;20.20;42.10;;;;;;5016077;28;20476;-74
2022/03/29 02:08:37;;;;;;;11.85;8.18;;;20.20;42.10;;;;;;4999168;28;20060;-75
2022/03/29 02:11:04;;;;;;;13.20;9.07;;;20.30;42.20;;;;;;5017159;28;20462;-75
2022/03/29 02:13:30;;;;;;;12.60;9.00;;;20.20;42.10;;;;;;5015902;28;20033;-74
2022/03/29 02:15:55;;;;;;;11.77;8.13;;;20.20;42.10;;;;;;5000871;28;20051;-74
2022/03/29 02:18:22;;;;;;;12.05;8.88;;;20.20;42.10;;;;;;4996673;28;20429;-77
2022/03/29 02:20:47;;;;;;;12.95;9.02;;;20.20;42.20;;;;;;4997147;28;20033;-74
2022/03/29 02:23:15;;;;;;;11.20;8.25;;;20.20;42.10;;;;;;4997277;28;20062;-75
2022/03/29 02:25:46;;;;;;;13.35;8.80;;;20.20;42.20;;;;;;4997319;28;20046;-75
2022/03/29 02:28:11;;;;;;;13.02;8.95;;;20.20;42.20;;;;;;4981917;28;20019;-87
2022/03/29 02:30:37;;;;;;;12.98;8.45;;;20.20;42.20;;;;;;4980043;28;20025;-86
2022/03/29 02:33:05;;;;;;;14.60;8.75;;;20.20;42.20;;;;;;4996733;28;20044;-75
2022/03/29 02:35:31;;;;;;;12.10;8.20;;;20.20;42.30;;;;;;4996301;28;20030;-87
2022/03/29 02:37:57;;;;;;;12.75;8.40;;;20.20;42.30;;;;;;4979648;28;20397;-74
2022/03/29 02:40:22;;;;;;;12.05;8.73;;;20.20;42.20;;;;;;4996812;28;20022;-74
2022/03/29 02:42:52;;;;;;;14.02;8.82;;;20.10;42.30;;;;;;4996673;28;20019;-74
2022/03/29 02:45:20;;;;;;;12.90;8.93;;;20.20;42.40;;;;;;4996661;28;20015;-83
2022/03/29 02:47:47;;;;;;;11.73;8.23;;;20.10;42.30;;;;;;4995650;28;20010;-84
2022/03/29 02:50:13;;;;;;;11.95;8.30;;;20.10;42.30;;;;;;4979077;28;20022;-73
2022/03/29 02:52:46;;;;;;;13.32;8.98;;;20.20;42.40;;;;;;4995221;28;20359;-74
2022/03/29 02:55:12;;;;;;;12.93;8.65;;;20.20;42.40;;;;;;4995700;28;20531;-75
2022/03/29 02:57:43;;;;;;;14.38;9.02;;;20.10;42.40;;;;;;4994581;28;20038;-74
2022/03/29 03:00:10;;;;;;;11.90;8.50;;;20.10;42.30;;;;;;4993804;28;20025;-85
2022/03/29 03:02:36;;;;;;;12.40;8.45;;;20.20;42.40;;;;;;4995005;28;20584;-74
2022/03/29 03:05:03;;;;;;;11.73;8.50;;;20.20;42.40;;;;;;4978791;28;20089;-75
2022/03/29 03:07:29;;;;;;;11.30;8.32;;;20.10;42.40;;;;;;4996140;28;20026;-76
2022/03/29 03:09:55;;;;;;;13.23;8.52;;;20.10;42.50;;;;;;4998034;28;20076;-78
2022/03/29 03:12:23;;;;;;;13.13;8.50;;;20.20;42.50;;;;;;4997575;28;20098;-75
2022/03/29 03:14:49;;;;;;;12.13;8.57;;;20.10;42.40;;;;;;4980553;28;20069;-75
2022/03/29 03:17:15;;;;;;;12.05;8.35;;;20.10;42.50;;;;;;4980167;28;20116;-76
2022/03/29 03:19:40;;;;;;;12.80;8.75;;;20.10;42.50;;;;;;4979413;28;20026;-75
2022/03/29 03:22:08;;;;;;;11.65;8.10;;;20.10;42.50;;;;;;4979296;28;20081;-74
2022/03/29 03:24:35;;;;;;;11.48;8.30;;;20.10;42.50;;;;;;4996115;28;20037;-76
2022/03/29 03:27:01;;;;;;;13.88;8.95;;;20.10;42.50;;;;;;4998394;28;20019;-76
2022/03/29 03:29:29;;;;;;;12.38;8.10;;;20.10;42.50;;;;;;4999053;28;20041;-74
2022/03/29 03:31:55;;;;;;;13.55;8.85;;;20.10;42.60;;;;;;4981635;28;20011;-76
2022/03/29 03:34:21;;;;;;;13.10;8.40;;;20.10;42.60;;;;;;4999042;28;20037;-74
2022/03/29 03:36:47;;;;;;;11.70;8.10;;;20.10;42.60;;;;;;4997111;28;20023;-76
2022/03/29 03:39:12;;;;;;;11.63;8.38;;;20.10;42.60;;;;;;4978684;28;20026;-75
2022/03/29 03:41:40;;;;;;;13.80;8.50;;;20.10;42.60;;;;;;4995363;28;20023;-74
2022/03/29 03:44:05;;;;;;;11.35;8.05;;;20.00;42.60;;;;;;4994884;28;20034;-74
2022/03/29 03:46:32;;;;;;;11.20;7.63;;;20.10;42.50;;;;;;4996270;28;20025;-75
2022/03/29 03:48:58;;;;;;;11.77;8.50;;;20.10;42.80;;;;;;4979344;28;20034;-74
2022/03/29 03:51:24;;;;;;;12.30;8.32;;;20.30;42.10;;;;;;4995104;28;20034;-74
2022/03/29 03:53:50;;;;;;;11.38;8.50;;;20.40;41.60;;;;;;4995266;28;20022;-74
2022/03/29 03:56:16;;;;;;;11.13;7.80;;;20.60;41.30;;;;;;4978381;28;20030;-74
2022/03/29 03:58:42;;;;;;;10.77;7.63;;;20.70;41.10;;;;;;4994094;28;20144;-74
2022/03/29 04:01:11;;;;;;;11.35;7.90;;;20.80;40.90;;;;;;4978322;28;20065;-86
2022/03/29 04:03:38;;;;;;;11.37;8.20;;;20.90;40.70;;;;;;4977723;28;20092;-75
2022/03/29 04:06:04;;;;;;;13.57;8.52;;;21.00;40.60;;;;;;4994486;28;20045;-77
2022/03/29 04:08:30;;;;;;;12.75;8.38;;;21.10;40.30;;;;;;4994847;28;20050;-75
2022/03/29 04:10:57;;;;;;;11.57;7.72;;;21.20;40.00;;;;;;4997585;28;20015;-77
2022/03/29 04:13:23;;;;;;;10.65;7.70;;;21.30;39.80;;;;;;5000581;28;20058;-85
2022/03/29 04:15:49;;;;;;;11.60;7.38;;;21.50;39.60;;;;;;4999664;28;20050;-74
2022/03/29 04:18:15;;;;;;;9.73;7.13;;;21.50;39.30;;;;;;4999562;28;20022;-75
2022/03/29 04:20:41;;;;;;;11.98;7.60;;;21.60;39.10;;;;;;4999609;28;20026;-74
2022/03/29 04:23:07;;;;;;;11.05;7.25;;;21.80;38.90;;;;;;4998923;28;20034;-75
2022/03/29 04:25:35;;;;;;;10.40;7.18;;;21.90;38.60;;;;;;5000059;28;20023;-75
2022/03/29 04:28:01;;;;;;;11.48;7.85;;;22.00;38.40;;;;;;4999232;28;20015;-76
2022/03/29 04:30:27;;;;;;;10.82;7.43;;;22.00;38.20;;;;;;5000426;28;20018;-74
2022/03/29 04:32:53;;;;;;;11.98;7.60;;;22.10;38.10;;;;;;4981078;28;20036;-74
2022/03/29 04:35:19;;;;;;;10.43;7.15;;;22.20;37.90;;;;;;4998915;28;20480;-74
2022/03/29 04:37:45;;;;;;;11.88;7.70;;;22.30;37.70;;;;;;4999697;28;20022;-74
2022/03/29 04:40:12;;;;;;;10.38;7.10;;;22.40;37.50;;;;;;5002267;28;20022;-75
2022/03/29 04:42:46;;;;;;;10.98;7.10;;;22.40;37.40;;;;;;5001767;28;20022;-75
2022/03/29 04:45:12;;;;;;;10.00;7.05;;;22.40;37.30;;;;;;4998203;28;20105;-74
2022/03/29 04:47:40;;;;;;;9.95;7.15;;;22.50;37.20;;;;;;5000687;28;20003;-77
2022/03/29 04:50:07;;;;;;;10.55;7.00;;;22.50;37.10;;;;;;4998375;28;20101;-75
2022/03/29 04:52:33;;;;;;;11.18;7.13;;;22.60;37.10;;;;;;4998388;28;20022;-78
2022/03/29 04:55:00;;;;;;;11.23;7.57;;;22.60;36.90;;;;;;5000946;28;20030;-83
2022/03/29 04:57:26;;;;;;;11.02;7.22;;;22.70;36.80;;;;;;4981090;28;20077;-74
2022/03/29 04:59:52;;;;;;;10.18;7.13;;;22.70;36.80;;;;;;4997606;28;20030;-74
2022/03/29 05:02:17;;;;;;;8.73;6.50;;;22.70;36.60;;;;;;4998071;28;20014;-74
2022/03/29 05:04:44;;;;;;;11.65;6.80;;;22.70;36.70;;;;;;4998427;28;20041;-74
2022/03/29 05:07:10;;;;;;;10.18;6.93;;;22.80;36.70;;;;;;4998003;28;20026;-74
2022/03/29 05:09:39;;;;;;;10.65;6.50;;;22.80;36.50;;;;;;4997484;28;20069;-74
2022/03/29 05:12:06;;;;;;;9.98;6.65;;;22.80;36.40;;;;;;5002582;28;20053;-75
2022/03/29 05:14:34;;;;;;;10.93;6.95;;;22.80;36.40;;;;;;5004194;28;20027;-76
2022/03/29 05:17:00;;;;;;;11.25;7.10;;;22.90;36.30;;;;;;5003193;28;20014;-77
2022/03/29 05:19:26;;;;;;;9.75;6.50;;;22.90;36.30;;;;;;5001319;28;20034;-74
2022/03/29 05:21:53;;;;;;;10.75;6.68;;;22.90;36.30;;;;;;4997884;28;20026;-74
2022/03/29 05:24:20;;;;;;;10.68;6.78;;;22.90;36.20;;;;;;4999026;28;20026;-74
2022/03/29 05:26:45;;;;;;;9.00;6.53;;;23.00;36.10;;;;;;4999322;28;20025;-74
2022/03/29 05:29:14;;;;;;;10.02;6.13;;;23.00;36.00;;;;;;4981954;28;20076;-74
2022/03/29 05:31:41;;;;;;;10.52;6.43;;;23.00;36.00;;;;;;5000481;28;20029;-74
2022/03/29 05:34:07;;;;;;;8.98;6.10;;;23.00;35.90;;;;;;4982162;28;20022;-75
2022/03/29 05:36:33;;;;;;;11.57;6.20;;;23.00;35.80;;;;;;4999741;28;20146;-75
2022/03/29 05:39:00;;;;;;;11.15;6.03;;;23.10;35.90;;;;;;4998947;28;20045;-74
2022/03/29 05:41:25;;;;;;;9.55;6.13;;;23.10;35.80;;;;;;5000981;28;20462;-74
2022/03/29 05:43:51;;;;;;;9.88;6.00;;;23.10;35.80;;;;;;5000640;28;20034;-75
2022/03/29 05:49:02;;;;;;;11.55;6.07;;;23.10;35.80;;;;;;4999704;28;20057;-74
2022/03/29 05:51:29;;;;;;;9.98;6.28;;;23.10;35.70;;;;;;4999724;28;20017;-75
2022/03/29 05:53:58;;;;;;;10.07;6.20;;;23.10;35.60;;;;;;4999636;28;20432;-74
2022/03/29 05:56:24;;;;;;;10.57;5.90;;;23.10;35.50;;;;;;4984140;28;20015;-74
2022/03/29 05:58:50;;;;;;;8.77;5.78;;;23.20;35.50;;;;;;4985181;28;20289;-78
2022/03/29 06:01:18;;;;;;;10.82;5.70;;;23.20;35.50;;;;;;4985615;28;20022;-85
2022/03/29 06:03:44;;;;;;;10.35;5.85;;;23.20;35.40;;;;;;5000716;28;20057;-73
2022/03/29 06:06:13;;;;;;;9.45;5.60;;;23.20;35.30;;;;;;5001199;28;20026;-76
2022/03/29 06:08:39;;;;;;;8.20;5.30;;;23.30;35.30;;;;;;4968800;28;20026;-74
2022/03/29 06:11:07;;;;;;;9.18;5.50;;;23.30;35.30;;;;;;4999428;28;20073;-73
2022/03/29 06:13:35;;;;;;;9.23;5.53;;;23.20;35.20;;;;;;4984914;28;20042;-73
2022/03/29 06:16:04;;;;;;;10.40;6.17;;;23.20;35.20;;;;;;4999984;28;20050;-73
2022/03/29 06:18:33;;;;;;;10.27;5.68;;;23.30;35.20;;;;;;4998818;28;20026;-83
2022/03/29 06:21:02;;;;;;;9.57;5.57;;;23.30;35.10;;;;;;5002196;28;20023;-74
2022/03/29 06:23:30;;;;;;;9.85;5.70;;;23.30;35.60;;;;;;4984007;28;20045;-73
2022/03/29 06:25:57;;;;;;;10.00;6.15;;;23.20;35.20;;;;;;5000392;28;20026;-76
2022/03/29 06:28:22;;;;;;;13.45;6.20;;;23.20;35.30;;;;;;4983482;28;20017;-74
2022/03/29 06:30:48;;;;;;;14.27;5.90;;;23.20;35.80;;;;;;4996312;28;20010;-74
2022/03/29 06:33:16;;;;;;;12.02;6.00;;;23.20;36.10;;;;;;4997702;28;20060;-75
2022/03/29 06:35:41;;;;;;;14.20;6.13;;;23.30;36.40;;;;;;4996283;28;20022;-73
2022/03/29 06:38:10;;;;;;;14.30;6.03;;;23.30;36.50;;;;;;4997441;28;20018;-74
2022/03/29 06:40:36;;;;;;;13.48;5.97;;;23.40;36.60;;;;;;4996802;28;20030;-73
2022/03/29 06:43:02;;;;;;;14.95;5.53;;;23.40;36.70;;;;;;4996568;28;20041;-74
2022/03/29 06:45:28;;;;;;;15.27;6.40;;;23.40;36.80;;;;;;4995758;28;20027;-75
2022/03/29 06:47:54;;;;;;;14.35;5.35;;;23.30;37.00;;;;;;4996191;28;20488;-73
2022/03/29 06:50:20;;;;;;;12.30;5.40;;;23.30;37.00;;;;;;4996606;28;20038;-73
2022/03/29 06:52:46;;;;;;;14.27;5.80;;;23.30;37.20;;;;;;4996582;28;20355;-74
2022/03/29 06:55:15;;;;;;;14.73;5.53;;;23.30;37.40;;;;;;4979193;28;20102;-75
2022/03/29 06:57:41;;;;;;;15.25;5.90;;;23.30;37.60;;;;;;4998808;28;20093;-75
2022/03/29 07:00:09;;;;;;;16.70;6.35;;;23.20;37.80;;;;;;4999405;28;20081;-76
2022/03/29 07:02:35;;;;;;;13.25;6.20;;;23.20;38.00;;;;;;4999391;28;20018;-77
2022/03/29 07:05:02;;;;;;;17.45;6.25;;;23.10;38.10;;;;;;4999880;28;20022;-74
2022/03/29 07:07:28;;;;;;;16.73;6.75;;;23.10;38.30;;;;;;4999612;28;20056;-75
2022/03/29 07:12:57;;;;;;;15.73;6.55;;;23.10;38.90;;;;;;5000082;28;20045;-75
2022/03/29 07:15:23;;;;;;;17.70;6.90;;;23.00;39.20;;;;;;4984253;28;20047;-76
2022/03/29 07:17:49;;;;;;;20.13;7.22;;;23.00;39.20;;;;;;4984052;28;20493;-77
2022/03/29 07:20:19;;;;;;;18.40;7.50;;;22.80;39.20;;;;;;4998215;28;20072;-77
2022/03/29 07:22:45;;;;;;;20.98;7.68;;;22.70;39.40;;;;;;4998520;28;20481;-75
2022/03/29 07:25:11;;;;;;;27.40;7.68;;;22.80;40.00;;;;;;4999362;28;20042;-76
2022/03/29 07:27:37;;;;;;;27.50;7.38;;;22.90;40.50;;;;;;4998785;28;20018;-74
2022/03/29 07:30:05;;;;;;;22.33;7.15;;;22.90;40.50;;;;;;4999504;28;20397;-74
2022/03/29 07:32:32;;;;;;;22.38;7.25;;;23.00;40.60;;;;;;4996823;28;20081;-75
2022/03/29 07:34:58;;;;;;;23.35;6.90;;;23.00;40.60;;;;;;4994518;28;20076;-75
2022/03/29 07:37:24;;;;;;;27.52;7.25;;;23.10;40.70;;;;;;4994384;28;20014;-74
2022/03/29 07:39:53;;;;;;;18.70;7.32;;;23.10;40.80;;;;;;4996455;28;20389;-77
2022/03/29 07:42:23;;;;;;;32.78;7.15;;;23.10;40.90;;;;;;4995157;28;20110;-76
2022/03/29 07:44:50;;;;;;;23.03;7.30;;;23.20;41.10;;;;;;4996016;28;20100;-75
2022/03/29 07:47:19;;;;;;;25.92;7.22;;;23.20;41.10;;;;;;4999904;28;20258;-75
2022/03/29 07:49:46;;;;;;;33.17;7.83;;;23.30;41.30;;;;;;4999549;28;20110;-75
2022/03/29 07:52:13;;;;;;;26.73;8.25;;;23.30;41.30;;;;;;4983848;28;20274;-74
2022/03/29 07:54:38;;;;;;;29.38;7.00;;;23.30;41.40;;;;;;5000061;28;20029;-72
2022/03/29 07:57:08;;;;;;;28.35;7.93;;;23.30;41.40;;;;;;5001123;28;20049;-74
2022/03/29 07:59:37;;;;;;;18.02;6.57;;;23.40;41.60;;;;;;4982383;28;20046;-74
2022/03/29 08:02:08;;;;;;;25.05;7.25;;;23.40;41.60;;;;;;5001023;28;20026;-76
2022/03/29 08:04:33;;;;;;;27.27;6.57;;;23.40;41.70;;;;;;4988900;28;20031;-75
2022/03/29 08:07:00;;;;;;;20.90;6.65;;;23.40;41.60;;;;;;5001328;28;20014;-74
2022/03/29 08:09:27;;;;;;;30.38;7.70;;;23.40;41.50;;;;;;4986803;28;20034;-75
2022/03/29 08:11:53;;;;;;;32.47;7.47;;;23.30;41.30;;;;;;4985750;28;20011;-73
2022/03/29 08:14:19;;;;;;;22.95;6.95;;;23.30;41.00;;;;;;4987243;28;20015;-74
2022/03/29 08:16:46;;;;;;;24.35;7.10;;;23.30;40.70;;;;;;4989014;28;20015;-74
2022/03/29 08:19:12;;;;;;;28.55;7.70;;;23.30;40.50;;;;;;5003650;28;20010;-78
2022/03/29 08:21:50;;;;;;;34.20;7.18;;;23.30;40.20;;;;;;4997688;28;20085;-74
2022/03/29 08:24:17;;;;;;;26.02;6.50;;;23.30;39.90;;;;;;4995846;28;20026;-74
2022/03/29 08:26:45;;;;;;;22.92;6.68;;;23.40;39.70;;;;;;4979785;28;20057;-74
2022/03/29 08:29:12;;;;;;;24.60;7.25;;;23.40;39.50;;;;;;4998886;28;20045;-80
2022/03/29 08:31:38;;;;;;;27.88;6.72;;;23.40;39.30;;;;;;4981001;28;20477;-74
2022/03/29 08:34:06;;;;;;;29.88;7.38;;;23.50;39.10;;;;;;4997318;28;20053;-74
2022/03/29 08:36:31;;;;;;;24.00;9.13;;;23.50;39.00;;;;;;4980419;28;20480;-74
2022/03/29 08:38:57;;;;;;;29.17;13.07;;;22.50;38.80;;;;;;4996604;28;20014;-74
2022/03/29 08:41:25;;;;;;;23.92;12.27;;;21.20;40.10;;;;;;4998984;28;20056;-74
2022/03/29 08:43:51;;;;;;;29.67;13.07;;;20.80;40.90;;;;;;4997101;28;20026;-73
2022/03/29 08:46:17;;;;;;;23.63;13.02;;;20.90;40.70;;;;;;4995733;28;20378;-75
2022/03/29 08:48:45;;;;;;;27.98;11.88;;;20.90;40.90;;;;;;4980691;28;20062;-74
2022/03/29 08:51:11;;;;;;;23.80;11.43;;;21.00;40.80;;;;;;4995732;28;20010;-74
2022/03/29 08:53:37;;;;;;;27.75;12.20;;;21.00;40.70;;;;;;4997414;28;20050;-75
2022/03/29 08:56:03;;;;;;;24.90;11.57;;;21.00;40.40;;;;;;4998551;28;20046;-75
2022/03/29 08:58:29;;;;;;;21.20;10.98;;;21.00;40.30;;;;;;4998778;28;20050;-79
2022/03/29 09:00:57;;;;;;;31.40;13.50;;;20.90;40.90;;;;;;5001214;28;20029;-75
2022/03/29 09:03:23;;;;;;;21.02;12.10;;;20.90;40.50;;;;;;5001990;28;20038;-75
2022/03/29 09:06:04;;;;;;;26.08;12.30;;;20.80;41.10;;;;;;4987036;28;20041;-75
2022/03/29 09:08:41;;;;;;;24.13;12.55;;;20.50;42.00;;;;;;5002479;28;20013;-76
2022/03/29 09:11:08;;;;;;;27.58;12.88;;;20.30;42.40;;;;;;5001764;28;20486;-75
2022/03/29 09:13:34;;;;;;;32.22;12.82;;;19.90;43.60;;;;;;5006257;28;20030;-76
2022/03/29 09:16:01;;;;;;;31.23;12.48;;;20.00;44.00;;;;;;5005052;28;20053;-74
2022/03/29 09:18:27;;;;;;;34.90;12.65;;;20.10;44.10;;;;;;5006430;28;20065;-76
2022/03/29 09:21:17;;;;;;;34.08;14.02;;;20.40;43.30;;;;;;5002931;28;20022;-76
2022/03/29 09:23:44;;;;;;;26.73;14.77;;;20.00;43.40;;;;;;5001198;28;20034;-75
2022/03/29 09:26:26;;;;;;;38.92;16.58;;;19.80;43.90;;;;;;4986938;28;20022;-75
2022/03/29 09:28:52;;;;;;;29.55;15.82;;;20.00;43.40;;;;;;4989337;28;20037;-78
2022/03/29 09:31:19;;;;;;;28.35;16.23;;;20.00;43.20;;;;;;5003626;28;20101;-77
2022/03/29 09:33:45;;;;;;;32.95;17.23;;;20.00;43.20;;;;;;4988048;28;20022;-75
2022/03/29 09:36:14;;;;;;;29.45;16.30;;;19.90;43.40;;;;;;4989663;28;20077;-76
2022/03/29 09:38:45;;;;;;;32.55;17.05;;;20.10;43.70;;;;;;4991854;28;20007;-76
2022/03/29 09:41:21;;;;;;;;;;;20.40;42.50;;;;;;4992967;28;20121;-75
2022/03/29 09:44:05;;;;;;;27.02;16.52;;;20.10;42.40;;;;;;5007301;28;19910;-77
2022/03/29 09:46:31;;;;;;;29.50;16.27;;;20.00;42.90;;;;;;5007917;28;20018;-75
2022/03/29 09:49:00;;;;;;;26.48;15.98;;;20.20;42.40;;;;;;4990779;28;20033;-75
2022/03/29 09:51:27;;;;;;;31.52;18.35;;;20.50;42.20;;;;;;4992558;28;20018;-77
2022/03/29 09:54:03;;;;;;;32.78;18.73;;;20.80;41.60;;;;;;4991202;28;20042;-77
2022/03/29 09:56:30;;;;;;;33.78;18.23;;;21.00;41.40;;;;;;5008738;28;20045;-84
2022/03/29 09:59:10;;;;;;;34.42;18.25;;;21.10;40.60;;;;;;5003499;28;20018;-77
2022/03/29 10:01:57;;;;;;;31.30;17.73;;;20.90;41.40;;;;;;5000699;28;20034;-76
2022/03/29 10:04:24;;;;;;;34.03;18.73;;;20.90;40.60;;;;;;5000154;28;20026;-77
2022/03/29 10:06:54;;;;;;;32.92;18.83;;;20.30;41.70;;;;;;5001489;28;20098;-77
2022/03/29 10:09:31;;;;;;;32.13;16.98;;;20.00;43.10;;;;;;4984420;28;20065;-78
2022/03/29 10:12:06;;;;;;;35.20;16.42;;;20.00;43.00;;;;;;4983032;28;20077;-77
2022/03/29 10:14:34;;;;;;;27.77;16.15;;;20.10;42.60;;;;;;5000828;28;20026;-78
2022/03/29 10:17:02;;;;;;;33.58;16.52;;;20.30;42.30;;;;;;5001118;28;20011;-79
2022/03/29 10:19:28;;;;;;;29.52;16.10;;;20.10;42.30;;;;;;5000380;28;20029;-82
2022/03/29 10:21:56;;;;;;;27.98;16.02;;;20.10;42.60;;;;;;4984010;28;20026;-75
2022/03/29 10:24:23;;;;;;;33.45;16.40;;;20.20;41.80;;;;;;4988577;28;20053;-76
2022/03/29 10:26:50;;;;;;;27.40;15.85;;;20.20;42.30;;;;;;4986739;28;20029;-83
2022/03/29 10:29:15;;;;;;;27.70;16.77;;;20.50;41.50;;;;;;5006111;28;20069;-75
2022/03/29 10:31:50;;;;;;;30.55;16.20;;;20.20;41.90;;;;;;5000506;28;20038;-76
2022/03/29 10:34:22;;;;;;;26.40;15.68;;;20.10;42.20;;;;;;5000859;28;20052;-76
2022/03/29 10:37:20;;;;;;;26.77;15.35;;;20.50;41.40;;;;;;5018292;28;20014;-78
2022/03/29 10:39:54;;;;;;;30.65;16.23;;;20.80;40.80;;;;;;5001991;28;20017;-79
2022/03/29 10:42:30;;;;;;;25.40;15.18;;;20.70;40.60;;;;;;5018548;28;20018;-76
2022/03/29 10:45:15;;;;;;;32.70;18.05;;;20.80;40.30;;;;;;5017821;28;20043;-77
2022/03/29 10:47:45;;;;;;;35.10;18.35;;;20.90;40.10;;;;;;5016573;28;20033;-75
2022/03/29 10:50:12;;;;;;;28.95;17.13;;;20.70;40.60;;;;;;5016641;28;20033;-77
2022/03/29 10:52:42;;;;;;;38.67;18.50;;;20.70;40.70;;;;;;5015953;28;20033;-75
2022/03/29 10:55:28;;;;;;;26.85;17.00;;;20.80;40.30;;;;;;5016570;28;20015;-78
2022/03/29 10:58:07;;;;;;;27.98;17.55;;;21.00;39.80;;;;;;5016975;28;20017;-81
2022/03/29 11:00:35;;;;;;;27.10;17.13;;;21.20;39.50;;;;;;5015749;28;20018;-75
2022/03/29 11:03:10;;;;;;;27.58;17.15;;;21.30;39.20;;;;;;5017000;28;20026;-75
2022/03/29 11:06:17;;;;;;;25.60;16.85;;;21.40;39.10;;;;;;5017299;28;20100;-78
2022/03/29 11:08:47;;;;;;;28.83;16.25;;;21.40;38.90;;;;;;4976787;28;20498;-75
2022/03/29 11:11:40;;;;;;;26.98;15.63;;;21.40;38.90;;;;;;4976628;28;20020;-76
2022/03/29 11:14:27;;;;;;;26.58;15.48;;;21.40;38.60;;;;;;4976383;28;20063;-76
2022/03/29 11:16:54;;;;;;;25.00;16.13;;;21.40;38.50;;;;;;4976708;28;20055;-81
2022/03/29 11:19:38;;;;;;;26.88;15.95;;;21.40;38.40;;;;;;4976634;28;20115;-76
2022/03/29 11:22:22;;;;;;;27.23;15.82;;;21.50;38.50;;;;;;4978981;29;20042;-76
2022/03/29 11:24:55;;;;;;;25.90;15.20;;;21.50;38.30;;;;;;4978033;28;20043;-77
2022/03/29 11:27:26;;;;;;;25.27;15.65;;;21.50;38.30;;;;;;4962456;29;20058;-75
2022/03/29 11:29:52;;;;;;;24.50;15.80;;;21.50;38.30;;;;;;4977692;29;20043;-77
2022/03/29 11:32:19;;;;;;;25.98;15.70;;;21.50;38.20;;;;;;4978864;29;20051;-82
2022/03/29 11:34:45;;;;;;;22.88;14.57;;;21.50;38.20;;;;;;4962868;29;20019;-83
2022/03/29 11:37:27;;;;;;;23.30;14.68;;;21.50;38.30;;;;;;4971927;28;20027;-82
2022/03/29 11:39:53;;;;;;;24.25;14.43;;;21.50;38.20;;;;;;4995560;28;20031;-72
2022/03/29 11:42:19;;;;;;;25.73;14.52;;;21.60;38.20;;;;;;5009059;28;20053;-84
2022/03/29 11:44:48;;;;;;;24.73;14.85;;;21.50;38.20;;;;;;5006397;28;20082;-73
2022/03/29 11:47:15;;;;;;;22.38;14.10;;;21.50;38.20;;;;;;5004362;28;20018;-85
2022/03/29 11:49:48;;;;;;;21.40;14.27;;;21.50;38.30;;;;;;5005578;28;20034;-85
2022/03/29 11:52:19;;;;;;;25.48;14.32;;;21.50;38.20;;;;;;5020009;28;20031;-83
2022/03/29 11:54:48;;;;;;;24.27;13.57;;;21.50;38.30;;;;;;5003142;28;20033;-84
2022/03/29 11:57:27;;;;;;;25.08;15.20;;;21.50;38.50;;;;;;5002253;28;20030;-84
2022/03/29 11:59:53;;;;;;;22.77;14.57;;;21.50;38.40;;;;;;4986191;28;20122;-83
2022/03/29 12:02:21;;;;;;;24.02;14.60;;;21.50;38.40;;;;;;4985046;28;20022;-74
2022/03/29 12:04:48;;;;;;;22.92;13.82;;;21.50;38.50;;;;;;5001322;28;20026;-83
2022/03/29 12:07:14;;;;;;;21.02;14.13;;;21.40;38.50;;;;;;4985569;28;20489;-81
2022/03/29 12:09:48;;;;;;;22.50;13.65;;;21.50;38.20;;;;;;5000658;28;20481;-81
2022/03/29 12:12:14;;;;;;;21.05;13.02;;;21.50;38.20;;;;;;4984904;28;20022;-74
2022/03/29 12:14:40;;;;;;;22.35;13.68;;;21.50;38.10;;;;;;5000027;28;20520;-73
2022/03/29 12:17:08;;;;;;;27.83;14.68;;;21.50;38.20;;;;;;4998546;28;20030;-74
2022/03/29 12:19:37;;;;;;;21.63;13.43;;;21.50;38.10;;;;;;4998749;28;20026;-73
2022/03/29 12:22:07;;;;;;;22.02;13.55;;;21.50;38.20;;;;;;5000368;28;20446;-73
2022/03/29 12:24:38;;;;;;;21.75;13.32;;;21.50;38.20;;;;;;4982855;28;20030;-75
2022/03/29 12:27:15;;;;;;;20.05;13.00;;;21.50;38.40;;;;;;4999454;28;20022;-75
2022/03/29 12:29:46;;;;;;;21.55;13.75;;;21.50;38.30;;;;;;4999705;28;20019;-74
2022/03/29 12:32:13;;;;;;;22.50;16.05;;;21.50;38.40;;;;;;4998439;28;20046;-74
2022/03/29 12:34:39;;;;;;;23.35;14.80;;;21.50;38.50;;;;;;4998693;28;20026;-89
2022/03/29 12:37:05;;;;;;;22.02;15.02;;;21.50;38.50;;;;;;4998018;28;20386;-75
2022/03/29 12:39:33;;;;;;;21.02;14.15;;;21.50;38.60;;;;;;4981290;28;20021;-74
2022/03/29 12:41:58;;;;;;;24.75;15.75;;;21.40;38.60;;;;;;4997161;28;20473;-73
2022/03/29 12:44:36;;;;;;;23.70;15.77;;;21.40;38.80;;;;;;4997913;28;20030;-76
2022/03/29 12:47:05;;;;;;;22.13;15.23;;;21.40;38.80;;;;;;4997435;28;20023;-74
2022/03/29 12:49:32;;;;;;;23.25;15.77;;;21.40;38.90;;;;;;4997159;28;20076;-74